sensor_id;sensor_type;location;lat;lon;timestamp;temperature;humidity
83660;SHT30;73632;50.808;3.422;2024-03-25T09:23:24;8.37;80.94
83660;SHT30;73632;50.808;3.422;2024-03-25T09:25:53;8.80;78.60
83660;SHT30;73632;50.808;3.422;2024-03-25T09:28:19;8.60;78.45
83660;SHT30;73632;50.808;3.422;2024-03-25T09:30:44;8.40;79.15
83660;SHT30;73632;50.808;3.422;2024-03-25T09:33:10;8.63;78.53
83660;SHT30;73632;50.808;3.422;2024-03-25T09:35:35;8.65;78.44
83660;SHT30;73632;50.808;3.422;2024-03-25T09:38:02;8.81;78.72
83660;SHT30;73632;50.808;3.422;2024-03-25T09:40:28;9.00;78.24
83660;SHT30;73632;50.808;3.422;2024-03-25T09:42:58;8.87;78.50
83660;SHT30;73632;50.808;3.422;2024-03-25T09:45:29;8.83;78.95
83660;SHT30;73632;50.808;3.422;2024-03-25T09:47:55;8.84;78.34
83660;SHT30;73632;50.808;3.422;2024-03-25T09:50:20;8.49;79.62
83660;SHT30;73632;50.808;3.422;2024-03-25T09:52:47;8.59;79.71
83660;SHT30;73632;50.808;3.422;2024-03-25T09:55:13;8.49;80.12
83660;SHT30;73632;50.808;3.422;2024-03-25T09:57:38;8.75;79.60
83660;SHT30;73632;50.808;3.422;2024-03-25T10:00:07;8.73;79.00
83660;SHT30;73632;50.808;3.422;2024-03-25T10:02:34;8.71;79.81
83660;SHT30;73632;50.808;3.422;2024-03-25T10:05:01;8.70;79.05
83660;SHT30;73632;50.808;3.422;2024-03-25T10:07:28;9.32;76.71
83660;SHT30;73632;50.808;3.422;2024-03-25T10:09:53;9.62;72.97
83660;SHT30;73632;50.808;3.422;2024-03-25T10:12:18;10.72;70.43
83660;SHT30;73632;50.808;3.422;2024-03-25T10:14:45;12.47;63.49
83660;SHT30;73632;50.808;3.422;2024-03-25T10:17:10;13.40;60.39
83660;SHT30;73632;50.808;3.422;2024-03-25T10:19:37;13.84;58.63
83660;SHT30;73632;50.808;3.422;2024-03-25T10:22:06;14.65;56.51
83660;SHT30;73632;50.808;3.422;2024-03-25T10:24:43;15.06;54.02
83660;SHT30;73632;50.808;3.422;2024-03-25T10:27:22;14.45;56.39
83660;SHT30;73632;50.808;3.422;2024-03-25T10:29:51;13.74;59.93
83660;SHT30;73632;50.808;3.422;2024-03-25T10:32:17;13.81;58.84
83660;SHT30;73632;50.808;3.422;2024-03-25T10:34:42;13.32;60.70
83660;SHT30;73632;50.808;3.422;2024-03-25T10:37:09;12.92;62.08
83660;SHT30;73632;50.808;3.422;2024-03-25T10:39:39;12.81;62.06
83660;SHT30;73632;50.808;3.422;2024-03-25T10:42:10;12.85;61.34
83660;SHT30;73632;50.808;3.422;2024-03-25T10:44:38;12.98;61.07
83660;SHT30;73632;50.808;3.422;2024-03-25T10:47:05;12.82;61.01
83660;SHT30;73632;50.808;3.422;2024-03-25T10:52:05;12.10;63.11
83660;SHT30;73632;50.808;3.422;2024-03-25T10:54:31;12.10;63.56
83660;SHT30;73632;50.808;3.422;2024-03-25T10:56:58;11.72;64.02
83660;SHT30;73632;50.808;3.422;2024-03-25T10:59:26;11.59;64.93
83660;SHT30;73632;50.808;3.422;2024-03-25T11:01:52;11.39;63.89
83660;SHT30;73632;50.808;3.422;2024-03-25T11:04:19;11.89;63.44
83660;SHT30;73632;50.808;3.422;2024-03-25T11:06:45;12.47;62.12
83660;SHT30;73632;50.808;3.422;2024-03-25T11:09:21;12.82;59.31
83660;SHT30;73632;50.808;3.422;2024-03-25T11:11:51;12.87;59.35
83660;SHT30;73632;50.808;3.422;2024-03-25T11:14:17;12.38;59.56
83660;SHT30;73632;50.808;3.422;2024-03-25T11:16:43;12.13;59.60
83660;SHT30;73632;50.808;3.422;2024-03-25T11:19:11;11.86;60.93
83660;SHT30;73632;50.808;3.422;2024-03-25T11:21:36;11.91;60.55
83660;SHT30;73632;50.808;3.422;2024-03-25T11:24:08;11.90;60.70
83660;SHT30;73632;50.808;3.422;2024-03-25T11:26:34;12.64;59.93
83660;SHT30;73632;50.808;3.422;2024-03-25T11:29:02;12.71;59.41
83660;SHT30;73632;50.808;3.422;2024-03-25T11:31:28;12.91;58.16
83660;SHT30;73632;50.808;3.422;2024-03-25T11:33:54;13.01;57.31
83660;SHT30;73632;50.808;3.422;2024-03-25T11:36:20;12.84;55.56
83660;SHT30;73632;50.808;3.422;2024-03-25T11:39:04;12.81;53.13
83660;SHT30;73632;50.808;3.422;2024-03-25T11:41:32;12.49;52.80
83660;SHT30;73632;50.808;3.422;2024-03-25T11:43:58;12.44;53.77
83660;SHT30;73632;50.808;3.422;2024-03-25T11:46:25;12.57;53.99
83660;SHT30;73632;50.808;3.422;2024-03-25T11:48:51;12.88;52.79
83660;SHT30;73632;50.808;3.422;2024-03-25T11:51:17;12.85;53.22
83660;SHT30;73632;50.808;3.422;2024-03-25T11:53:43;12.96;52.43
83660;SHT30;73632;50.808;3.422;2024-03-25T11:56:10;12.88;52.45
83660;SHT30;73632;50.808;3.422;2024-03-25T11:58:36;13.20;50.52
83660;SHT30;73632;50.808;3.422;2024-03-25T12:01:01;13.29;51.12
83660;SHT30;73632;50.808;3.422;2024-03-25T12:03:27;13.49;51.35
83660;SHT30;73632;50.808;3.422;2024-03-25T12:05:53;13.66;51.75
83660;SHT30;73632;50.808;3.422;2024-03-25T12:08:18;13.67;51.01
83660;SHT30;73632;50.808;3.422;2024-03-25T12:10:43;13.24;50.34
83660;SHT30;73632;50.808;3.422;2024-03-25T12:13:27;13.29;50.84
83660;SHT30;73632;50.808;3.422;2024-03-25T12:15:53;13.03;50.96
83660;SHT30;73632;50.808;3.422;2024-03-25T12:18:19;12.84;52.08
83660;SHT30;73632;50.808;3.422;2024-03-25T12:20:45;12.98;53.22
83660;SHT30;73632;50.808;3.422;2024-03-25T12:23:10;12.64;50.36
83660;SHT30;73632;50.808;3.422;2024-03-25T12:25:36;12.51;51.24
83660;SHT30;73632;50.808;3.422;2024-03-25T12:28:01;12.68;50.59
83660;SHT30;73632;50.808;3.422;2024-03-25T12:30:33;12.72;52.07
83660;SHT30;73632;50.808;3.422;2024-03-25T12:33:00;12.81;51.63
83660;SHT30;73632;50.808;3.422;2024-03-25T12:35:25;12.55;52.03
83660;SHT30;73632;50.808;3.422;2024-03-25T12:37:51;12.41;51.73
83660;SHT30;73632;50.808;3.422;2024-03-25T12:40:28;12.16;52.27
83660;SHT30;73632;50.808;3.422;2024-03-25T12:42:53;12.12;51.90
83660;SHT30;73632;50.808;3.422;2024-03-25T12:45:20;12.03;51.86
83660;SHT30;73632;50.808;3.422;2024-03-25T12:47:45;12.16;50.81
83660;SHT30;73632;50.808;3.422;2024-03-25T12:50:11;12.23;50.05
83660;SHT30;73632;50.808;3.422;2024-03-25T12:52:37;12.12;51.26
83660;SHT30;73632;50.808;3.422;2024-03-25T12:55:02;12.20;51.76
83660;SHT30;73632;50.808;3.422;2024-03-25T12:57:29;12.48;51.84
83660;SHT30;73632;50.808;3.422;2024-03-25T12:59:54;12.65;50.17
83660;SHT30;73632;50.808;3.422;2024-03-25T13:02:19;12.58;50.30
83660;SHT30;73632;50.808;3.422;2024-03-25T13:04:45;12.62;49.23
83660;SHT30;73632;50.808;3.422;2024-03-25T13:07:10;12.54;52.14
83660;SHT30;73632;50.808;3.422;2024-03-25T13:09:36;12.54;52.36
83660;SHT30;73632;50.808;3.422;2024-03-25T13:12:01;12.48;51.13
83660;SHT30;73632;50.808;3.422;2024-03-25T13:14:27;12.41;50.20
83660;SHT30;73632;50.808;3.422;2024-03-25T13:16:52;12.23;49.89
83660;SHT30;73632;50.808;3.422;2024-03-25T13:19:18;12.38;50.42
83660;SHT30;73632;50.808;3.422;2024-03-25T13:21:43;12.42;50.43
83660;SHT30;73632;50.808;3.422;2024-03-25T13:24:09;12.34;49.07
83660;SHT30;73632;50.808;3.422;2024-03-25T13:26:34;12.49;49.79
83660;SHT30;73632;50.808;3.422;2024-03-25T13:28:59;12.47;49.18
83660;SHT30;73632;50.808;3.422;2024-03-25T13:31:25;12.45;48.76
83660;SHT30;73632;50.808;3.422;2024-03-25T13:33:51;12.33;48.55
83660;SHT30;73632;50.808;3.422;2024-03-25T13:36:17;12.51;49.83
83660;SHT30;73632;50.808;3.422;2024-03-25T13:38:42;12.57;47.56
83660;SHT30;73632;50.808;3.422;2024-03-25T13:41:07;12.49;48.25
83660;SHT30;73632;50.808;3.422;2024-03-25T13:43:33;12.49;48.33
83660;SHT30;73632;50.808;3.422;2024-03-25T13:45:58;12.69;49.13
83660;SHT30;73632;50.808;3.422;2024-03-25T13:48:24;12.74;45.53
83660;SHT30;73632;50.808;3.422;2024-03-25T13:50:49;12.65;45.50
83660;SHT30;73632;50.808;3.422;2024-03-25T13:53:15;12.59;46.75
83660;SHT30;73632;50.808;3.422;2024-03-25T13:55:40;12.59;47.33
83660;SHT30;73632;50.808;3.422;2024-03-25T13:58:07;12.58;46.13
83660;SHT30;73632;50.808;3.422;2024-03-25T14:00:33;12.38;46.79
83660;SHT30;73632;50.808;3.422;2024-03-25T14:03:01;12.42;47.09
83660;SHT30;73632;50.808;3.422;2024-03-25T14:05:27;12.44;47.40
83660;SHT30;73632;50.808;3.422;2024-03-25T14:07:52;12.59;47.76
83660;SHT30;73632;50.808;3.422;2024-03-25T14:10:18;12.68;47.86
83660;SHT30;73632;50.808;3.422;2024-03-25T14:12:43;12.78;47.83
83660;SHT30;73632;50.808;3.422;2024-03-25T14:15:09;12.77;47.48
83660;SHT30;73632;50.808;3.422;2024-03-25T14:17:35;12.69;48.06
83660;SHT30;73632;50.808;3.422;2024-03-25T14:20:00;12.71;47.49
83660;SHT30;73632;50.808;3.422;2024-03-25T14:22:26;12.68;48.64
83660;SHT30;73632;50.808;3.422;2024-03-25T14:24:52;12.55;48.07
83660;SHT30;73632;50.808;3.422;2024-03-25T14:27:22;12.57;48.64
83660;SHT30;73632;50.808;3.422;2024-03-25T14:29:47;12.57;49.92
83660;SHT30;73632;50.808;3.422;2024-03-25T14:32:12;12.37;49.81
83660;SHT30;73632;50.808;3.422;2024-03-25T14:34:38;12.41;49.39
83660;SHT30;73632;50.808;3.422;2024-03-25T14:37:03;12.44;48.34
83660;SHT30;73632;50.808;3.422;2024-03-25T14:39:29;12.51;47.89
83660;SHT30;73632;50.808;3.422;2024-03-25T14:41:54;12.41;48.41
83660;SHT30;73632;50.808;3.422;2024-03-25T14:44:20;12.44;48.75
83660;SHT30;73632;50.808;3.422;2024-03-25T14:46:46;12.48;48.69
83660;SHT30;73632;50.808;3.422;2024-03-25T14:49:12;12.41;48.32
83660;SHT30;73632;50.808;3.422;2024-03-25T14:51:37;12.41;48.52
83660;SHT30;73632;50.808;3.422;2024-03-25T14:54:03;12.34;48.06
83660;SHT30;73632;50.808;3.422;2024-03-25T14:56:29;12.47;48.54
83660;SHT30;73632;50.808;3.422;2024-03-25T14:58:54;12.48;46.91
83660;SHT30;73632;50.808;3.422;2024-03-25T15:01:20;12.49;48.40
83660;SHT30;73632;50.808;3.422;2024-03-25T15:03:45;12.47;48.03
83660;SHT30;73632;50.808;3.422;2024-03-25T15:06:11;12.52;49.19
83660;SHT30;73632;50.808;3.422;2024-03-25T15:08:37;12.45;47.54
83660;SHT30;73632;50.808;3.422;2024-03-25T15:11:03;12.47;47.74
83660;SHT30;73632;50.808;3.422;2024-03-25T15:13:30;12.41;47.71
83660;SHT30;73632;50.808;3.422;2024-03-25T15:15:55;12.47;48.05
83660;SHT30;73632;50.808;3.422;2024-03-25T15:18:20;12.59;49.39
83660;SHT30;73632;50.808;3.422;2024-03-25T15:20:46;12.62;47.71
83660;SHT30;73632;50.808;3.422;2024-03-25T15:23:11;12.49;47.36
83660;SHT30;73632;50.808;3.422;2024-03-25T15:25:37;12.45;48.99
83660;SHT30;73632;50.808;3.422;2024-03-25T15:28:02;12.44;49.22
83660;SHT30;73632;50.808;3.422;2024-03-25T15:30:28;12.47;49.62
83660;SHT30;73632;50.808;3.422;2024-03-25T15:32:53;12.51;48.87
83660;SHT30;73632;50.808;3.422;2024-03-25T15:35:20;12.40;48.49
83660;SHT30;73632;50.808;3.422;2024-03-25T15:37:46;12.38;48.58
83660;SHT30;73632;50.808;3.422;2024-03-25T15:40:12;12.28;48.32
83660;SHT30;73632;50.808;3.422;2024-03-25T15:42:43;12.30;48.26
83660;SHT30;73632;50.808;3.422;2024-03-25T15:45:08;12.41;49.12
83660;SHT30;73632;50.808;3.422;2024-03-25T15:47:34;12.41;48.90
83660;SHT30;73632;50.808;3.422;2024-03-25T15:49:59;12.27;47.32
83660;SHT30;73632;50.808;3.422;2024-03-25T15:52:24;12.23;49.45
83660;SHT30;73632;50.808;3.422;2024-03-25T15:54:50;12.20;48.21
83660;SHT30;73632;50.808;3.422;2024-03-25T15:57:17;12.24;49.52
83660;SHT30;73632;50.808;3.422;2024-03-25T15:59:42;12.16;48.99
83660;SHT30;73632;50.808;3.422;2024-03-25T16:02:07;12.16;50.04
83660;SHT30;73632;50.808;3.422;2024-03-25T16:04:33;12.14;50.26
83660;SHT30;73632;50.808;3.422;2024-03-25T16:06:58;12.21;50.37
83660;SHT30;73632;50.808;3.422;2024-03-25T16:09:29;12.26;49.99
83660;SHT30;73632;50.808;3.422;2024-03-25T16:11:54;12.24;49.80
83660;SHT30;73632;50.808;3.422;2024-03-25T16:14:20;12.26;48.75
83660;SHT30;73632;50.808;3.422;2024-03-25T16:16:45;12.20;48.15
83660;SHT30;73632;50.808;3.422;2024-03-25T16:19:12;12.24;49.43
83660;SHT30;73632;50.808;3.422;2024-03-25T16:21:37;12.24;50.20
83660;SHT30;73632;50.808;3.422;2024-03-25T16:24:03;12.28;49.68
83660;SHT30;73632;50.808;3.422;2024-03-25T16:26:30;12.33;49.26
83660;SHT30;73632;50.808;3.422;2024-03-25T16:28:55;12.34;50.00
83660;SHT30;73632;50.808;3.422;2024-03-25T16:31:21;12.26;49.12
83660;SHT30;73632;50.808;3.422;2024-03-25T16:33:47;12.21;49.26
83660;SHT30;73632;50.808;3.422;2024-03-25T16:36:13;12.14;49.35
83660;SHT30;73632;50.808;3.422;2024-03-25T16:38:39;12.16;50.05
83660;SHT30;73632;50.808;3.422;2024-03-25T16:41:05;12.12;50.19
83660;SHT30;73632;50.808;3.422;2024-03-25T16:43:32;12.04;49.44
83660;SHT30;73632;50.808;3.422;2024-03-25T16:45:57;12.14;49.48
83660;SHT30;73632;50.808;3.422;2024-03-25T16:48:22;12.08;48.88
83660;SHT30;73632;50.808;3.422;2024-03-25T16:50:48;12.01;49.74
83660;SHT30;73632;50.808;3.422;2024-03-25T16:53:13;11.97;49.43
83660;SHT30;73632;50.808;3.422;2024-03-25T16:55:39;11.97;49.07
83660;SHT30;73632;50.808;3.422;2024-03-25T16:58:04;11.94;50.42
83660;SHT30;73632;50.808;3.422;2024-03-25T17:00:30;11.94;50.74
83660;SHT30;73632;50.808;3.422;2024-03-25T17:02:55;11.83;52.39
83660;SHT30;73632;50.808;3.422;2024-03-25T17:05:20;11.77;51.52
83660;SHT30;73632;50.808;3.422;2024-03-25T17:07:47;11.80;50.51
83660;SHT30;73632;50.808;3.422;2024-03-25T17:10:12;11.74;51.42
83660;SHT30;73632;50.808;3.422;2024-03-25T17:12:38;11.70;51.25
83660;SHT30;73632;50.808;3.422;2024-03-25T17:15:04;11.70;50.72
83660;SHT30;73632;50.808;3.422;2024-03-25T17:17:30;11.70;51.32
83660;SHT30;73632;50.808;3.422;2024-03-25T17:20:00;11.66;52.08
83660;SHT30;73632;50.808;3.422;2024-03-25T17:22:25;11.62;51.89
83660;SHT30;73632;50.808;3.422;2024-03-25T17:24:51;11.56;52.22
83660;SHT30;73632;50.808;3.422;2024-03-25T17:27:17;11.52;52.75
83660;SHT30;73632;50.808;3.422;2024-03-25T17:29:47;11.46;53.04
83660;SHT30;73632;50.808;3.422;2024-03-25T17:32:13;11.47;52.51
83660;SHT30;73632;50.808;3.422;2024-03-25T17:34:38;11.53;52.95
83660;SHT30;73632;50.808;3.422;2024-03-25T17:37:04;11.47;53.80
83660;SHT30;73632;50.808;3.422;2024-03-25T17:39:29;11.36;54.18
83660;SHT30;73632;50.808;3.422;2024-03-25T17:41:55;11.42;54.22
83660;SHT30;73632;50.808;3.422;2024-03-25T17:44:21;11.38;54.17
83660;SHT30;73632;50.808;3.422;2024-03-25T17:46:46;11.18;54.80
83660;SHT30;73632;50.808;3.422;2024-03-25T17:49:12;11.23;55.00
83660;SHT30;73632;50.808;3.422;2024-03-25T17:51:38;11.21;54.94
83660;SHT30;73632;50.808;3.422;2024-03-25T17:54:03;11.25;54.69
83660;SHT30;73632;50.808;3.422;2024-03-25T17:56:28;11.16;54.91
83660;SHT30;73632;50.808;3.422;2024-03-25T17:58:54;11.15;55.20
83660;SHT30;73632;50.808;3.422;2024-03-25T18:01:19;11.15;54.94
83660;SHT30;73632;50.808;3.422;2024-03-25T18:03:45;11.12;54.46
83660;SHT30;73632;50.808;3.422;2024-03-25T18:06:10;11.05;55.36
83660;SHT30;73632;50.808;3.422;2024-03-25T18:08:36;11.04;55.64
83660;SHT30;73632;50.808;3.422;2024-03-25T18:11:01;10.88;55.78
83660;SHT30;73632;50.808;3.422;2024-03-25T18:13:26;10.75;56.12
83660;SHT30;73632;50.808;3.422;2024-03-25T18:15:52;10.82;55.77
83660;SHT30;73632;50.808;3.422;2024-03-25T18:18:19;10.79;55.51
83660;SHT30;73632;50.808;3.422;2024-03-25T18:20:45;10.82;55.31
83660;SHT30;73632;50.808;3.422;2024-03-25T18:23:11;10.78;55.26
83660;SHT30;73632;50.808;3.422;2024-03-25T18:25:37;10.71;55.28
83660;SHT30;73632;50.808;3.422;2024-03-25T18:28:03;10.67;55.51
83660;SHT30;73632;50.808;3.422;2024-03-25T18:30:30;10.69;55.56
83660;SHT30;73632;50.808;3.422;2024-03-25T18:32:55;10.71;55.22
83660;SHT30;73632;50.808;3.422;2024-03-25T18:35:21;10.64;55.45
83660;SHT30;73632;50.808;3.422;2024-03-25T18:37:46;10.57;55.76
83660;SHT30;73632;50.808;3.422;2024-03-25T18:40:13;10.53;56.14
83660;SHT30;73632;50.808;3.422;2024-03-25T18:42:39;10.48;56.45
83660;SHT30;73632;50.808;3.422;2024-03-25T18:45:05;10.44;56.66
83660;SHT30;73632;50.808;3.422;2024-03-25T18:47:30;10.38;57.00
83660;SHT30;73632;50.808;3.422;2024-03-25T18:49:56;10.36;57.26
83660;SHT30;73632;50.808;3.422;2024-03-25T18:52:21;10.36;57.18
83660;SHT30;73632;50.808;3.422;2024-03-25T18:54:47;10.30;57.21
83660;SHT30;73632;50.808;3.422;2024-03-25T18:57:12;10.24;57.43
83660;SHT30;73632;50.808;3.422;2024-03-25T18:59:38;10.30;57.06
83660;SHT30;73632;50.808;3.422;2024-03-25T19:02:03;10.36;57.03
83660;SHT30;73632;50.808;3.422;2024-03-25T19:04:28;10.27;57.35
83660;SHT30;73632;50.808;3.422;2024-03-25T19:06:54;10.27;57.42
83660;SHT30;73632;50.808;3.422;2024-03-25T19:09:19;10.29;57.32
83660;SHT30;73632;50.808;3.422;2024-03-25T19:11:45;10.20;57.80
83660;SHT30;73632;50.808;3.422;2024-03-25T19:14:10;10.09;58.22
83660;SHT30;73632;50.808;3.422;2024-03-25T19:16:35;10.17;57.64
83660;SHT30;73632;50.808;3.422;2024-03-25T19:19:01;10.16;58.01
83660;SHT30;73632;50.808;3.422;2024-03-25T19:21:27;10.18;57.48
83660;SHT30;73632;50.808;3.422;2024-03-25T19:23:52;10.23;57.22
83660;SHT30;73632;50.808;3.422;2024-03-25T19:26:17;10.14;57.65
83660;SHT30;73632;50.808;3.422;2024-03-25T19:28:43;10.06;58.20
83660;SHT30;73632;50.808;3.422;2024-03-25T19:31:08;10.13;58.16
83660;SHT30;73632;50.808;3.422;2024-03-25T19:33:34;10.18;57.68
83660;SHT30;73632;50.808;3.422;2024-03-25T19:35:59;10.13;58.03
83660;SHT30;73632;50.808;3.422;2024-03-25T19:38:24;10.07;58.34
83660;SHT30;73632;50.808;3.422;2024-03-25T19:40:50;10.06;58.34
83660;SHT30;73632;50.808;3.422;2024-03-25T19:43:15;9.99;58.47
83660;SHT30;73632;50.808;3.422;2024-03-25T19:45:41;10.06;58.51
83660;SHT30;73632;50.808;3.422;2024-03-25T19:48:07;10.04;58.65
83660;SHT30;73632;50.808;3.422;2024-03-25T19:50:33;10.02;58.94
83660;SHT30;73632;50.808;3.422;2024-03-25T19:52:58;10.02;59.03
83660;SHT30;73632;50.808;3.422;2024-03-25T19:55:24;9.94;59.22
83660;SHT30;73632;50.808;3.422;2024-03-25T19:57:50;9.89;58.99
83660;SHT30;73632;50.808;3.422;2024-03-25T20:00:15;9.94;59.25
83660;SHT30;73632;50.808;3.422;2024-03-25T20:02:41;9.92;59.42
83660;SHT30;73632;50.808;3.422;2024-03-25T20:05:06;9.92;59.46
83660;SHT30;73632;50.808;3.422;2024-03-25T20:07:32;9.83;60.08
83660;SHT30;73632;50.808;3.422;2024-03-25T20:09:57;9.73;60.24
83660;SHT30;73632;50.808;3.422;2024-03-25T20:12:23;9.87;59.95
83660;SHT30;73632;50.808;3.422;2024-03-25T20:14:48;9.86;59.66
83660;SHT30;73632;50.808;3.422;2024-03-25T20:17:13;9.87;59.87
83660;SHT30;73632;50.808;3.422;2024-03-25T20:19:39;9.87;59.50
83660;SHT30;73632;50.808;3.422;2024-03-25T20:22:05;9.83;60.10
83660;SHT30;73632;50.808;3.422;2024-03-25T20:24:30;9.80;60.42
83660;SHT30;73632;50.808;3.422;2024-03-25T20:26:56;9.65;60.60
83660;SHT30;73632;50.808;3.422;2024-03-25T20:29:22;9.79;60.40
83660;SHT30;73632;50.808;3.422;2024-03-25T20:31:47;9.78;60.54
83660;SHT30;73632;50.808;3.422;2024-03-25T20:34:12;9.66;60.77
83660;SHT30;73632;50.808;3.422;2024-03-25T20:36:38;9.65;60.91
83660;SHT30;73632;50.808;3.422;2024-03-25T20:39:04;9.69;60.77
83660;SHT30;73632;50.808;3.422;2024-03-25T20:41:29;9.70;60.84
83660;SHT30;73632;50.808;3.422;2024-03-25T20:43:54;9.76;60.20
83660;SHT30;73632;50.808;3.422;2024-03-25T20:46:20;9.73;60.27
83660;SHT30;73632;50.808;3.422;2024-03-25T20:48:48;9.69;60.02
83660;SHT30;73632;50.808;3.422;2024-03-25T20:51:14;9.76;60.16
83660;SHT30;73632;50.808;3.422;2024-03-25T20:53:39;9.72;60.30
83660;SHT30;73632;50.808;3.422;2024-03-25T20:56:05;9.79;60.00
83660;SHT30;73632;50.808;3.422;2024-03-25T20:58:30;9.66;60.61
83660;SHT30;73632;50.808;3.422;2024-03-25T21:00:56;9.72;60.78
83660;SHT30;73632;50.808;3.422;2024-03-25T21:03:21;9.69;60.56
83660;SHT30;73632;50.808;3.422;2024-03-25T21:05:54;9.72;60.52
83660;SHT30;73632;50.808;3.422;2024-03-25T21:08:19;9.60;61.16
83660;SHT30;73632;50.808;3.422;2024-03-25T21:10:45;9.62;61.03
83660;SHT30;73632;50.808;3.422;2024-03-25T21:13:10;9.65;61.02
83660;SHT30;73632;50.808;3.422;2024-03-25T21:15:35;9.78;60.32
83660;SHT30;73632;50.808;3.422;2024-03-25T21:18:01;9.72;60.70
83660;SHT30;73632;50.808;3.422;2024-03-25T21:20:26;9.68;60.84
83660;SHT30;73632;50.808;3.422;2024-03-25T21:22:51;9.59;60.99
83660;SHT30;73632;50.808;3.422;2024-03-25T21:25:17;9.66;60.65
83660;SHT30;73632;50.808;3.422;2024-03-25T21:27:42;9.58;61.26
83660;SHT30;73632;50.808;3.422;2024-03-25T21:30:08;9.59;61.17
83660;SHT30;73632;50.808;3.422;2024-03-25T21:32:33;9.60;61.07
83660;SHT30;73632;50.808;3.422;2024-03-25T21:34:59;9.56;61.48
83660;SHT30;73632;50.808;3.422;2024-03-25T21:37:24;9.46;61.61
83660;SHT30;73632;50.808;3.422;2024-03-25T21:39:50;9.40;61.70
83660;SHT30;73632;50.808;3.422;2024-03-25T21:42:16;9.45;61.52
83660;SHT30;73632;50.808;3.422;2024-03-25T21:44:41;9.52;61.43
83660;SHT30;73632;50.808;3.422;2024-03-25T21:47:06;9.45;61.61
83660;SHT30;73632;50.808;3.422;2024-03-25T21:49:32;9.38;61.90
83660;SHT30;73632;50.808;3.422;2024-03-25T21:51:57;9.32;62.06
83660;SHT30;73632;50.808;3.422;2024-03-25T21:54:23;9.27;62.33
83660;SHT30;73632;50.808;3.422;2024-03-25T21:56:48;9.27;62.14
83660;SHT30;73632;50.808;3.422;2024-03-25T21:59:15;9.29;61.58
83660;SHT30;73632;50.808;3.422;2024-03-25T22:01:40;9.22;61.96
83660;SHT30;73632;50.808;3.422;2024-03-25T22:04:05;9.18;61.90
83660;SHT30;73632;50.808;3.422;2024-03-25T22:06:31;9.19;61.64
83660;SHT30;73632;50.808;3.422;2024-03-25T22:08:56;9.17;61.89
83660;SHT30;73632;50.808;3.422;2024-03-25T22:11:22;9.14;61.77
83660;SHT30;73632;50.808;3.422;2024-03-25T22:13:47;9.17;61.81
83660;SHT30;73632;50.808;3.422;2024-03-25T22:16:12;9.12;61.59
83660;SHT30;73632;50.808;3.422;2024-03-25T22:18:38;9.12;61.60
83660;SHT30;73632;50.808;3.422;2024-03-25T22:21:06;9.14;61.18
83660;SHT30;73632;50.808;3.422;2024-03-25T22:23:32;9.14;61.40
83660;SHT30;73632;50.808;3.422;2024-03-25T22:26:00;9.11;61.38
83660;SHT30;73632;50.808;3.422;2024-03-25T22:28:26;9.14;61.22
83660;SHT30;73632;50.808;3.422;2024-03-25T22:30:59;9.12;61.28
83660;SHT30;73632;50.808;3.422;2024-03-25T22:33:25;9.07;61.68
83660;SHT30;73632;50.808;3.422;2024-03-25T22:38:20;9.00;61.94
83660;SHT30;73632;50.808;3.422;2024-03-25T22:40:46;8.91;62.39
83660;SHT30;73632;50.808;3.422;2024-03-25T22:43:11;8.81;62.52
83660;SHT30;73632;50.808;3.422;2024-03-25T22:45:36;8.89;62.65
83660;SHT30;73632;50.808;3.422;2024-03-25T22:48:02;8.74;62.97
83660;SHT30;73632;50.808;3.422;2024-03-25T22:50:28;8.80;62.86
83660;SHT30;73632;50.808;3.422;2024-03-25T22:52:53;8.80;62.51
83660;SHT30;73632;50.808;3.422;2024-03-25T22:55:18;8.70;62.97
83660;SHT30;73632;50.808;3.422;2024-03-25T22:57:44;8.67;62.95
83660;SHT30;73632;50.808;3.422;2024-03-25T23:00:10;8.61;63.17
83660;SHT30;73632;50.808;3.422;2024-03-25T23:02:40;8.65;63.11
83660;SHT30;73632;50.808;3.422;2024-03-25T23:05:06;8.67;62.93
83660;SHT30;73632;50.808;3.422;2024-03-25T23:07:31;8.50;63.38
83660;SHT30;73632;50.808;3.422;2024-03-25T23:09:57;8.65;63.23
83660;SHT30;73632;50.808;3.422;2024-03-25T23:12:22;8.63;63.18
83660;SHT30;73632;50.808;3.422;2024-03-25T23:14:48;8.63;62.93
83660;SHT30;73632;50.808;3.422;2024-03-25T23:17:14;8.59;62.93
83660;SHT30;73632;50.808;3.422;2024-03-25T23:19:39;8.60;62.79
83660;SHT30;73632;50.808;3.422;2024-03-25T23:22:05;8.63;62.79
83660;SHT30;73632;50.808;3.422;2024-03-25T23:24:31;8.59;63.05
83660;SHT30;73632;50.808;3.422;2024-03-25T23:26:56;8.61;62.84
83660;SHT30;73632;50.808;3.422;2024-03-25T23:29:22;8.65;62.12
83660;SHT30;73632;50.808;3.422;2024-03-25T23:31:47;8.64;62.65
83660;SHT30;73632;50.808;3.422;2024-03-25T23:34:12;8.68;62.71
83660;SHT30;73632;50.808;3.422;2024-03-25T23:36:38;8.61;62.76
83660;SHT30;73632;50.808;3.422;2024-03-25T23:39:03;8.63;62.68
83660;SHT30;73632;50.808;3.422;2024-03-25T23:41:29;8.61;62.73
83660;SHT30;73632;50.808;3.422;2024-03-25T23:43:54;8.61;62.86
83660;SHT30;73632;50.808;3.422;2024-03-25T23:46:20;8.56;63.05
83660;SHT30;73632;50.808;3.422;2024-03-25T23:48:50;8.59;63.09
83660;SHT30;73632;50.808;3.422;2024-03-25T23:51:16;8.49;63.43
83660;SHT30;73632;50.808;3.422;2024-03-25T23:53:42;8.49;63.28
83660;SHT30;73632;50.808;3.422;2024-03-25T23:56:08;8.49;63.09
83660;SHT30;73632;50.808;3.422;2024-03-25T23:58:33;8.49;63.20
